sensor_id;sensor_type;location;lat;lon;timestamp;P1;P2;P0
72031;PMS5003;49185;42.320;23.198;2023-11-19T00:01:43;2766.33;2766.33;2766.33
72031;PMS5003;49185;42.320;23.198;2023-11-19T00:04:08;2753.67;2753.67;2753.67
72031;PMS5003;49185;42.320;23.198;2023-11-19T00:06:33;2767.33;2767.33;2767.33
72031;PMS5003;49185;42.320;23.198;2023-11-19T00:08:59;2752.67;2752.67;2752.67
72031;PMS5003;49185;42.320;23.198;2023-11-19T00:11:24;2748.00;2748.00;2748.00
72031;PMS5003;49185;42.320;23.198;2023-11-19T00:13:49;2748.67;2748.67;2748.67
72031;PMS5003;49185;42.320;23.198;2023-11-19T00:16:15;2764.67;2764.67;2764.67
72031;PMS5003;49185;42.320;23.198;2023-11-19T00:18:40;2772.00;2772.00;2772.00
72031;PMS5003;49185;42.320;23.198;2023-11-19T00:21:06;2773.33;2773.33;2773.33
72031;PMS5003;49185;42.320;23.198;2023-11-19T00:23:31;2759.67;2759.67;2759.67
72031;PMS5003;49185;42.320;23.198;2023-11-19T00:25:56;2773.33;2773.33;2773.33
72031;PMS5003;49185;42.320;23.198;2023-11-19T00:28:22;2770.67;2770.67;2770.67
72031;PMS5003;49185;42.320;23.198;2023-11-19T00:30:47;2751.33;2751.33;2751.33
72031;PMS5003;49185;42.320;23.198;2023-11-19T00:33:12;2756.33;2756.33;2756.33
72031;PMS5003;49185;42.320;23.198;2023-11-19T00:35:38;2755.33;2755.33;2755.33
72031;PMS5003;49185;42.320;23.198;2023-11-19T00:38:03;2773.33;2773.33;2773.33
72031;PMS5003;49185;42.320;23.198;2023-11-19T00:40:28;2756.33;2756.33;2756.33
72031;PMS5003;49185;42.320;23.198;2023-11-19T00:42:54;2759.67;2759.67;2759.67
72031;PMS5003;49185;42.320;23.198;2023-11-19T00:45:19;2776.00;2776.00;2776.00
72031;PMS5003;49185;42.320;23.198;2023-11-19T00:47:45;2763.67;2763.67;2763.67
72031;PMS5003;49185;42.320;23.198;2023-11-19T00:50:10;2763.67;2763.67;2763.67
72031;PMS5003;49185;42.320;23.198;2023-11-19T00:52:36;2779.00;2779.00;2779.00
72031;PMS5003;49185;42.320;23.198;2023-11-19T00:55:01;2766.33;2766.33;2766.33
72031;PMS5003;49185;42.320;23.198;2023-11-19T00:57:27;2778.67;2778.67;2778.67
72031;PMS5003;49185;42.320;23.198;2023-11-19T00:59:52;2768.33;2768.33;2768.33
72031;PMS5003;49185;42.320;23.198;2023-11-19T01:02:17;2781.67;2781.67;2781.67
72031;PMS5003;49185;42.320;23.198;2023-11-19T01:04:43;2768.67;2768.67;2768.67
72031;PMS5003;49185;42.320;23.198;2023-11-19T01:07:08;2763.67;2763.67;2763.67
72031;PMS5003;49185;42.320;23.198;2023-11-19T01:09:34;2759.67;2759.67;2759.67
72031;PMS5003;49185;42.320;23.198;2023-11-19T01:11:59;2761.00;2761.00;2761.00
72031;PMS5003;49185;42.320;23.198;2023-11-19T01:14:24;2767.33;2767.33;2767.33
72031;PMS5003;49185;42.320;23.198;2023-11-19T01:16:50;2770.67;2770.67;2770.67
72031;PMS5003;49185;42.320;23.198;2023-11-19T01:19:15;2759.67;2759.67;2759.67
72031;PMS5003;49185;42.320;23.198;2023-11-19T01:21:40;2762.33;2762.33;2762.33
72031;PMS5003;49185;42.320;23.198;2023-11-19T01:24:06;2763.67;2763.67;2763.67
72031;PMS5003;49185;42.320;23.198;2023-11-19T01:26:31;2752.67;2752.67;2752.67
72031;PMS5003;49185;42.320;23.198;2023-11-19T01:28:57;2740.33;2740.33;2740.33
72031;PMS5003;49185;42.320;23.198;2023-11-19T01:31:22;2752.67;2752.67;2752.67
72031;PMS5003;49185;42.320;23.198;2023-11-19T01:33:48;2726.00;2726.00;2726.00
72031;PMS5003;49185;42.320;23.198;2023-11-19T01:36:13;2734.33;2734.33;2734.33
72031;PMS5003;49185;42.320;23.198;2023-11-19T01:38:39;2749.50;2749.50;2749.50
72031;PMS5003;49185;42.320;23.198;2023-11-19T01:41:04;2726.00;2726.00;2726.00
72031;PMS5003;49185;42.320;23.198;2023-11-19T01:43:32;2742.50;2742.50;2742.50
72031;PMS5003;49185;42.320;23.198;2023-11-19T01:45:59;2748.00;2748.00;2748.00
72031;PMS5003;49185;42.320;23.198;2023-11-19T01:48:25;2749.50;2749.50;2749.50
72031;PMS5003;49185;42.320;23.198;2023-11-19T01:50:51;2738.50;2738.50;2738.50
72031;PMS5003;49185;42.320;23.198;2023-11-19T01:53:18;2753.00;2753.00;2753.00
72031;PMS5003;49185;42.320;23.198;2023-11-19T01:55:44;2759.00;2759.00;2759.00
72031;PMS5003;49185;42.320;23.198;2023-11-19T01:58:11;2759.00;2759.00;2759.00
72031;PMS5003;49185;42.320;23.198;2023-11-19T02:00:36;2740.33;2740.33;2740.33
72031;PMS5003;49185;42.320;23.198;2023-11-19T02:03:02;2740.33;2740.33;2740.33
72031;PMS5003;49185;42.320;23.198;2023-11-19T02:05:28;2757.00;2757.00;2757.00
72031;PMS5003;49185;42.320;23.198;2023-11-19T02:07:53;2740.33;2740.33;2740.33
72031;PMS5003;49185;42.320;23.198;2023-11-19T02:10:18;2741.67;2741.67;2741.67
72031;PMS5003;49185;42.320;23.198;2023-11-19T02:12:44;2744.33;2744.33;2744.33
72031;PMS5003;49185;42.320;23.198;2023-11-19T02:15:10;2760.50;2760.50;2760.50
72031;PMS5003;49185;42.320;23.198;2023-11-19T02:17:36;2740.33;2740.33;2740.33
72031;PMS5003;49185;42.320;23.198;2023-11-19T02:20:01;2745.33;2745.33;2745.33
72031;PMS5003;49185;42.320;23.198;2023-11-19T02:22:27;2748.67;2748.67;2748.67
72031;PMS5003;49185;42.320;23.198;2023-11-19T02:24:54;2755.33;2755.33;2755.33
72031;PMS5003;49185;42.320;23.198;2023-11-19T02:30:04;2746.00;2746.00;2746.00
72031;PMS5003;49185;42.320;23.198;2023-11-19T02:32:30;2749.50;2749.50;2749.50
72031;PMS5003;49185;42.320;23.198;2023-11-19T02:34:55;2731.33;2731.33;2731.33
72031;PMS5003;49185;42.320;23.198;2023-11-19T02:37:21;2741.67;2741.67;2741.67
72031;PMS5003;49185;42.320;23.198;2023-11-19T02:39:46;2727.33;2727.33;2727.33
72031;PMS5003;49185;42.320;23.198;2023-11-19T02:42:12;2747.33;2747.33;2747.33
72031;PMS5003;49185;42.320;23.198;2023-11-19T02:44:37;2733.33;2733.33;2733.33
72031;PMS5003;49185;42.320;23.198;2023-11-19T02:47:02;2731.33;2731.33;2731.33
72031;PMS5003;49185;42.320;23.198;2023-11-19T02:49:30;2757.00;2757.00;2757.00
72031;PMS5003;49185;42.320;23.198;2023-11-19T02:51:56;2756.33;2756.33;2756.33
72031;PMS5003;49185;42.320;23.198;2023-11-19T02:54:21;2752.67;2752.67;2752.67
72031;PMS5003;49185;42.320;23.198;2023-11-19T02:56:46;2739.67;2739.67;2739.67
72031;PMS5003;49185;42.320;23.198;2023-11-19T02:59:12;2741.67;2741.67;2741.67
72031;PMS5003;49185;42.320;23.198;2023-11-19T03:01:37;2738.33;2738.33;2738.33
72031;PMS5003;49185;42.320;23.198;2023-11-19T03:04:02;2755.33;2755.33;2755.33
72031;PMS5003;49185;42.320;23.198;2023-11-19T03:06:28;2740.33;2740.33;2740.33
72031;PMS5003;49185;42.320;23.198;2023-11-19T03:08:54;2751.33;2751.33;2751.33
72031;PMS5003;49185;42.320;23.198;2023-11-19T03:11:20;2742.50;2742.50;2742.50
72031;PMS5003;49185;42.320;23.198;2023-11-19T03:13:45;2752.67;2752.67;2752.67
72031;PMS5003;49185;42.320;23.198;2023-11-19T03:16:10;2738.33;2738.33;2738.33
72031;PMS5003;49185;42.320;23.198;2023-11-19T03:18:36;2740.33;2740.33;2740.33
72031;PMS5003;49185;42.320;23.198;2023-11-19T03:21:01;2758.33;2758.33;2758.33
72031;PMS5003;49185;42.320;23.198;2023-11-19T03:23:27;2741.67;2741.67;2741.67
72031;PMS5003;49185;42.320;23.198;2023-11-19T03:25:52;2734.33;2734.33;2734.33
72031;PMS5003;49185;42.320;23.198;2023-11-19T03:28:17;2748.67;2748.67;2748.67
72031;PMS5003;49185;42.320;23.198;2023-11-19T03:30:43;2737.00;2737.00;2737.00
72031;PMS5003;49185;42.320;23.198;2023-11-19T03:33:08;2744.33;2744.33;2744.33
72031;PMS5003;49185;42.320;23.198;2023-11-19T03:35:34;2730.00;2730.00;2730.00
72031;PMS5003;49185;42.320;23.198;2023-11-19T03:37:59;2738.33;2738.33;2738.33
72031;PMS5003;49185;42.320;23.198;2023-11-19T03:40:24;2726.00;2726.00;2726.00
72031;PMS5003;49185;42.320;23.198;2023-11-19T03:42:50;2737.00;2737.00;2737.00
72031;PMS5003;49185;42.320;23.198;2023-11-19T03:45:16;2738.50;2738.50;2738.50
72031;PMS5003;49185;42.320;23.198;2023-11-19T03:47:41;2731.33;2731.33;2731.33
72031;PMS5003;49185;42.320;23.198;2023-11-19T03:50:07;2727.33;2727.33;2727.33
72031;PMS5003;49185;42.320;23.198;2023-11-19T03:52:33;2726.00;2726.00;2726.00
72031;PMS5003;49185;42.320;23.198;2023-11-19T03:54:58;2715.33;2715.33;2715.33
72031;PMS5003;49185;42.320;23.198;2023-11-19T03:57:23;2716.33;2716.33;2716.33
72031;PMS5003;49185;42.320;23.198;2023-11-19T03:59:49;2720.33;2720.33;2720.33
72031;PMS5003;49185;42.320;23.198;2023-11-19T04:02:15;2708.50;2708.50;2708.50
72031;PMS5003;49185;42.320;23.198;2023-11-19T04:04:41;2708.50;2708.50;2708.50
72031;PMS5003;49185;42.320;23.198;2023-11-19T04:07:07;2712.00;2712.00;2712.00
72031;PMS5003;49185;42.320;23.198;2023-11-19T04:09:32;2715.33;2715.33;2715.33
72031;PMS5003;49185;42.320;23.198;2023-11-19T04:11:58;2702.33;2702.33;2702.33
72031;PMS5003;49185;42.320;23.198;2023-11-19T04:14:24;2720.50;2720.50;2720.50
72031;PMS5003;49185;42.320;23.198;2023-11-19T04:16:50;2719.00;2719.00;2719.00
72031;PMS5003;49185;42.320;23.198;2023-11-19T04:19:15;2710.50;2710.50;2710.50
72031;PMS5003;49185;42.320;23.198;2023-11-19T04:21:41;2708.33;2708.33;2708.33
72031;PMS5003;49185;42.320;23.198;2023-11-19T04:24:06;2709.33;2709.33;2709.33
72031;PMS5003;49185;42.320;23.198;2023-11-19T04:26:33;2715.50;2715.50;2715.50
72031;PMS5003;49185;42.320;23.198;2023-11-19T04:28:58;2713.33;2713.33;2713.33
72031;PMS5003;49185;42.320;23.198;2023-11-19T04:31:23;2713.33;2713.33;2713.33
72031;PMS5003;49185;42.320;23.198;2023-11-19T04:33:54;2715.50;2715.50;2715.50
72031;PMS5003;49185;42.320;23.198;2023-11-19T04:36:19;2731.33;2731.33;2731.33
72031;PMS5003;49185;42.320;23.198;2023-11-19T04:38:45;2731.33;2731.33;2731.33
72031;PMS5003;49185;42.320;23.198;2023-11-19T04:41:10;2726.00;2726.00;2726.00
72031;PMS5003;49185;42.320;23.198;2023-11-19T04:43:35;2728.67;2728.67;2728.67
72031;PMS5003;49185;42.320;23.198;2023-11-19T04:46:03;2734.33;2734.33;2734.33
72031;PMS5003;49185;42.320;23.198;2023-11-19T04:48:29;2719.00;2719.00;2719.00
72031;PMS5003;49185;42.320;23.198;2023-11-19T04:50:54;2741.67;2741.67;2741.67
72031;PMS5003;49185;42.320;23.198;2023-11-19T04:53:19;2747.33;2747.33;2747.33
72031;PMS5003;49185;42.320;23.198;2023-11-19T04:55:45;2748.67;2748.67;2748.67
72031;PMS5003;49185;42.320;23.198;2023-11-19T04:58:10;2723.33;2723.33;2723.33
72031;PMS5003;49185;42.320;23.198;2023-11-19T05:00:35;2744.33;2744.33;2744.33
72031;PMS5003;49185;42.320;23.198;2023-11-19T05:03:01;2751.33;2751.33;2751.33
72031;PMS5003;49185;42.320;23.198;2023-11-19T05:05:26;2744.33;2744.33;2744.33
72031;PMS5003;49185;42.320;23.198;2023-11-19T05:07:52;2733.33;2733.33;2733.33
72031;PMS5003;49185;42.320;23.198;2023-11-19T05:10:17;2741.67;2741.67;2741.67
72031;PMS5003;49185;42.320;23.198;2023-11-19T05:12:42;2731.33;2731.33;2731.33
72031;PMS5003;49185;42.320;23.198;2023-11-19T05:15:08;2723.33;2723.33;2723.33
72031;PMS5003;49185;42.320;23.198;2023-11-19T05:17:33;2727.33;2727.33;2727.33
72031;PMS5003;49185;42.320;23.198;2023-11-19T05:19:59;2740.33;2740.33;2740.33
72031;PMS5003;49185;42.320;23.198;2023-11-19T05:22:24;2738.33;2738.33;2738.33
72031;PMS5003;49185;42.320;23.198;2023-11-19T05:24:50;2726.00;2726.00;2726.00
72031;PMS5003;49185;42.320;23.198;2023-11-19T05:27:15;2740.33;2740.33;2740.33
72031;PMS5003;49185;42.320;23.198;2023-11-19T05:29:40;2741.67;2741.67;2741.67
72031;PMS5003;49185;42.320;23.198;2023-11-19T05:32:06;2741.67;2741.67;2741.67
72031;PMS5003;49185;42.320;23.198;2023-11-19T05:34:31;2721.33;2721.33;2721.33
72031;PMS5003;49185;42.320;23.198;2023-11-19T05:36:57;2745.33;2745.33;2745.33
72031;PMS5003;49185;42.320;23.198;2023-11-19T05:39:22;2730.00;2730.00;2730.00
72031;PMS5003;49185;42.320;23.198;2023-11-19T05:41:48;2749.50;2749.50;2749.50
72031;PMS5003;49185;42.320;23.198;2023-11-19T05:44:13;2740.33;2740.33;2740.33
72031;PMS5003;49185;42.320;23.198;2023-11-19T05:46:39;2723.33;2723.33;2723.33
72031;PMS5003;49185;42.320;23.198;2023-11-19T05:49:04;2727.33;2727.33;2727.33
72031;PMS5003;49185;42.320;23.198;2023-11-19T05:51:30;2732.33;2732.33;2732.33
72031;PMS5003;49185;42.320;23.198;2023-11-19T05:53:55;2719.00;2719.00;2719.00
72031;PMS5003;49185;42.320;23.198;2023-11-19T05:56:20;2738.33;2738.33;2738.33
72031;PMS5003;49185;42.320;23.198;2023-11-19T05:58:46;2733.33;2733.33;2733.33
72031;PMS5003;49185;42.320;23.198;2023-11-19T06:01:11;2723.33;2723.33;2723.33
72031;PMS5003;49185;42.320;23.198;2023-11-19T06:03:37;2719.00;2719.00;2719.00
72031;PMS5003;49185;42.320;23.198;2023-11-19T06:06:02;2720.33;2720.33;2720.33
72031;PMS5003;49185;42.320;23.198;2023-11-19T06:08:27;2715.33;2715.33;2715.33
72031;PMS5003;49185;42.320;23.198;2023-11-19T06:10:53;2734.33;2734.33;2734.33
72031;PMS5003;49185;42.320;23.198;2023-11-19T06:13:18;2738.33;2738.33;2738.33
72031;PMS5003;49185;42.320;23.198;2023-11-19T06:15:44;2719.00;2719.00;2719.00
72031;PMS5003;49185;42.320;23.198;2023-11-19T06:18:10;2734.33;2734.33;2734.33
72031;PMS5003;49185;42.320;23.198;2023-11-19T06:20:35;2726.00;2726.00;2726.00
72031;PMS5003;49185;42.320;23.198;2023-11-19T06:23:00;2744.33;2744.33;2744.33
72031;PMS5003;49185;42.320;23.198;2023-11-19T06:25:26;2730.00;2730.00;2730.00
72031;PMS5003;49185;42.320;23.198;2023-11-19T06:27:52;2745.33;2745.33;2745.33
72031;PMS5003;49185;42.320;23.198;2023-11-19T06:30:17;2753.00;2753.00;2753.00
72031;PMS5003;49185;42.320;23.198;2023-11-19T06:32:43;2759.00;2759.00;2759.00
72031;PMS5003;49185;42.320;23.198;2023-11-19T06:35:09;2737.00;2737.00;2737.00
72031;PMS5003;49185;42.320;23.198;2023-11-19T06:37:35;2741.67;2741.67;2741.67
72031;PMS5003;49185;42.320;23.198;2023-11-19T06:40:01;2766.00;2766.00;2766.00
72031;PMS5003;49185;42.320;23.198;2023-11-19T06:42:26;2771.50;2771.50;2771.50
72031;PMS5003;49185;42.320;23.198;2023-11-19T06:44:52;2767.33;2767.33;2767.33
72031;PMS5003;49185;42.320;23.198;2023-11-19T06:47:17;2756.33;2756.33;2756.33
72031;PMS5003;49185;42.320;23.198;2023-11-19T06:49:46;2767.33;2767.33;2767.33
72031;PMS5003;49185;42.320;23.198;2023-11-19T06:52:11;2771.50;2771.50;2771.50
72031;PMS5003;49185;42.320;23.198;2023-11-19T06:54:38;2755.33;2755.33;2755.33
72031;PMS5003;49185;42.320;23.198;2023-11-19T06:57:04;2768.00;2768.00;2768.00
72031;PMS5003;49185;42.320;23.198;2023-11-19T06:59:30;2751.33;2751.33;2751.33
72031;PMS5003;49185;42.320;23.198;2023-11-19T07:01:55;2758.33;2758.33;2758.33
72031;PMS5003;49185;42.320;23.198;2023-11-19T07:04:21;2744.33;2744.33;2744.33
72031;PMS5003;49185;42.320;23.198;2023-11-19T07:06:46;2751.00;2751.00;2751.00
72031;PMS5003;49185;42.320;23.198;2023-11-19T07:09:12;2741.67;2741.67;2741.67
72031;PMS5003;49185;42.320;23.198;2023-11-19T07:11:38;2730.00;2730.00;2730.00
72031;PMS5003;49185;42.320;23.198;2023-11-19T07:14:04;2692.50;2692.50;2692.50
72031;PMS5003;49185;42.320;23.198;2023-11-19T07:16:30;2712.00;2712.00;2712.00
72031;PMS5003;49185;42.320;23.198;2023-11-19T07:18:56;2687.00;2687.00;2687.00
72031;PMS5003;49185;42.320;23.198;2023-11-19T07:21:21;2691.00;2691.00;2691.00
72031;PMS5003;49185;42.320;23.198;2023-11-19T07:23:46;2705.00;2705.00;2705.00
72031;PMS5003;49185;42.320;23.198;2023-11-19T07:26:12;2688.33;2688.33;2688.33
72031;PMS5003;49185;42.320;23.198;2023-11-19T07:28:38;2697.50;2697.50;2697.50
72031;PMS5003;49185;42.320;23.198;2023-11-19T07:31:03;2706.33;2706.33;2706.33
72031;PMS5003;49185;42.320;23.198;2023-11-19T07:33:29;2696.00;2696.00;2696.00
72031;PMS5003;49185;42.320;23.198;2023-11-19T07:35:55;2679.67;2679.67;2679.67
72031;PMS5003;49185;42.320;23.198;2023-11-19T07:38:20;2715.50;2715.50;2715.50
72031;PMS5003;49185;42.320;23.198;2023-11-19T07:40:45;2694.00;2694.00;2694.00
72031;PMS5003;49185;42.320;23.198;2023-11-19T07:43:11;2694.00;2694.00;2694.00
72031;PMS5003;49185;42.320;23.198;2023-11-19T07:45:36;2706.33;2706.33;2706.33
72031;PMS5003;49185;42.320;23.198;2023-11-19T07:48:01;2713.33;2713.33;2713.33
72031;PMS5003;49185;42.320;23.198;2023-11-19T07:50:27;2713.33;2713.33;2713.33
72031;PMS5003;49185;42.320;23.198;2023-11-19T07:52:52;2715.33;2715.33;2715.33
72031;PMS5003;49185;42.320;23.198;2023-11-19T07:55:18;2705.00;2705.00;2705.00
72031;PMS5003;49185;42.320;23.198;2023-11-19T07:57:43;2708.33;2708.33;2708.33
72031;PMS5003;49185;42.320;23.198;2023-11-19T08:00:09;2726.00;2726.00;2726.00
72031;PMS5003;49185;42.320;23.198;2023-11-19T08:02:35;2735.50;2735.50;2735.50
72031;PMS5003;49185;42.320;23.198;2023-11-19T08:05:00;2716.33;2716.33;2716.33
72031;PMS5003;49185;42.320;23.198;2023-11-19T08:07:26;2720.33;2720.33;2720.33
72031;PMS5003;49185;42.320;23.198;2023-11-19T08:09:51;2712.00;2712.00;2712.00
72031;PMS5003;49185;42.320;23.198;2023-11-19T08:12:16;2727.33;2727.33;2727.33
72031;PMS5003;49185;42.320;23.198;2023-11-19T08:14:42;2727.33;2727.33;2727.33
72031;PMS5003;49185;42.320;23.198;2023-11-19T08:17:08;2719.00;2719.00;2719.00
72031;PMS5003;49185;42.320;23.198;2023-11-19T08:19:33;2727.33;2727.33;2727.33
72031;PMS5003;49185;42.320;23.198;2023-11-19T08:21:58;2716.33;2716.33;2716.33
72031;PMS5003;49185;42.320;23.198;2023-11-19T08:24:24;2716.33;2716.33;2716.33
72031;PMS5003;49185;42.320;23.198;2023-11-19T08:26:49;2720.33;2720.33;2720.33
72031;PMS5003;49185;42.320;23.198;2023-11-19T08:29:14;2722.33;2722.33;2722.33
72031;PMS5003;49185;42.320;23.198;2023-11-19T08:31:40;2734.33;2734.33;2734.33
72031;PMS5003;49185;42.320;23.198;2023-11-19T08:34:05;2726.00;2726.00;2726.00
72031;PMS5003;49185;42.320;23.198;2023-11-19T08:36:31;2711.00;2711.00;2711.00
72031;PMS5003;49185;42.320;23.198;2023-11-19T08:38:56;2730.00;2730.00;2730.00
72031;PMS5003;49185;42.320;23.198;2023-11-19T08:41:21;2719.00;2719.00;2719.00
72031;PMS5003;49185;42.320;23.198;2023-11-19T08:43:47;2719.00;2719.00;2719.00
72031;PMS5003;49185;42.320;23.198;2023-11-19T08:46:12;2716.33;2716.33;2716.33
72031;PMS5003;49185;42.320;23.198;2023-11-19T08:48:38;2720.33;2720.33;2720.33
72031;PMS5003;49185;42.320;23.198;2023-11-19T08:51:04;2744.33;2744.33;2744.33
72031;PMS5003;49185;42.320;23.198;2023-11-19T08:53:29;2742.50;2742.50;2742.50
72031;PMS5003;49185;42.320;23.198;2023-11-19T08:55:55;2747.33;2747.33;2747.33
72031;PMS5003;49185;42.320;23.198;2023-11-19T08:58:20;2763.67;2763.67;2763.67
72031;PMS5003;49185;42.320;23.198;2023-11-19T09:00:46;2753.67;2753.67;2753.67
72031;PMS5003;49185;42.320;23.198;2023-11-19T09:03:11;2742.67;2742.67;2742.67
72031;PMS5003;49185;42.320;23.198;2023-11-19T09:05:36;2769.33;2769.33;2769.33
72031;PMS5003;49185;42.320;23.198;2023-11-19T09:08:02;2759.67;2759.67;2759.67
72031;PMS5003;49185;42.320;23.198;2023-11-19T09:10:27;2756.33;2756.33;2756.33
72031;PMS5003;49185;42.320;23.198;2023-11-19T09:12:53;2753.67;2753.67;2753.67
72031;PMS5003;49185;42.320;23.198;2023-11-19T09:15:18;2762.33;2762.33;2762.33
72031;PMS5003;49185;42.320;23.198;2023-11-19T09:17:43;2780.67;2780.67;2780.67
72031;PMS5003;49185;42.320;23.198;2023-11-19T09:20:09;2769.33;2769.33;2769.33
72031;PMS5003;49185;42.320;23.198;2023-11-19T09:22:35;2784.50;2784.50;2784.50
72031;PMS5003;49185;42.320;23.198;2023-11-19T09:25:00;2777.33;2777.33;2777.33
72031;PMS5003;49185;42.320;23.198;2023-11-19T09:27:25;2759.67;2759.67;2759.67
72031;PMS5003;49185;42.320;23.198;2023-11-19T09:29:51;2765.00;2765.00;2765.00
72031;PMS5003;49185;42.320;23.198;2023-11-19T09:32:16;2778.67;2778.67;2778.67
72031;PMS5003;49185;42.320;23.198;2023-11-19T09:34:42;2777.33;2777.33;2777.33
72031;PMS5003;49185;42.320;23.198;2023-11-19T09:37:07;2772.00;2772.00;2772.00
72031;PMS5003;49185;42.320;23.198;2023-11-19T09:39:33;2777.33;2777.33;2777.33
72031;PMS5003;49185;42.320;23.198;2023-11-19T09:41:58;2758.33;2758.33;2758.33
72031;PMS5003;49185;42.320;23.198;2023-11-19T09:44:23;2759.67;2759.67;2759.67
72031;PMS5003;49185;42.320;23.198;2023-11-19T09:46:50;2779.00;2779.00;2779.00
72031;PMS5003;49185;42.320;23.198;2023-11-19T09:49:16;2762.33;2762.33;2762.33
72031;PMS5003;49185;42.320;23.198;2023-11-19T09:51:46;2777.00;2777.00;2777.00
72031;PMS5003;49185;42.320;23.198;2023-11-19T09:54:11;2763.67;2763.67;2763.67
72031;PMS5003;49185;42.320;23.198;2023-11-19T09:56:37;2769.33;2769.33;2769.33
72031;PMS5003;49185;42.320;23.198;2023-11-19T09:59:04;2794.00;2794.00;2794.00
72031;PMS5003;49185;42.320;23.198;2023-11-19T10:01:30;2805.00;2805.00;2805.00
72031;PMS5003;49185;42.320;23.198;2023-11-19T10:03:55;2800.67;2800.67;2800.67
72031;PMS5003;49185;42.320;23.198;2023-11-19T10:06:21;2804.67;2804.67;2804.67
72031;PMS5003;49185;42.320;23.198;2023-11-19T10:08:47;2814.50;2814.50;2814.50
72031;PMS5003;49185;42.320;23.198;2023-11-19T10:11:12;2812.00;2812.00;2812.00
72031;PMS5003;49185;42.320;23.198;2023-11-19T10:13:38;2800.67;2800.67;2800.67
72031;PMS5003;49185;42.320;23.198;2023-11-19T10:16:07;2810.50;2810.50;2810.50
72031;PMS5003;49185;42.320;23.198;2023-11-19T10:18:34;2794.00;2794.00;2794.00
72031;PMS5003;49185;42.320;23.198;2023-11-19T10:20:59;2812.00;2812.00;2812.00
72031;PMS5003;49185;42.320;23.198;2023-11-19T10:23:25;2825.67;2825.67;2825.67
72031;PMS5003;49185;42.320;23.198;2023-11-19T10:25:52;2827.00;2827.00;2827.00
72031;PMS5003;49185;42.320;23.198;2023-11-19T10:28:18;2867.00;2867.00;2867.00
72031;PMS5003;49185;42.320;23.198;2023-11-19T10:30:44;2857.00;2857.00;2857.00
72031;PMS5003;49185;42.320;23.198;2023-11-19T10:35:54;2881.00;2881.00;2881.00
72031;PMS5003;49185;42.320;23.198;2023-11-19T10:38:21;2909.00;2909.00;2909.00
72031;PMS5003;49185;42.320;23.198;2023-11-19T10:40:47;2901.00;2901.00;2901.00
72031;PMS5003;49185;42.320;23.198;2023-11-19T10:43:12;2894.33;2894.33;2894.33
72031;PMS5003;49185;42.320;23.198;2023-11-19T10:45:38;2873.00;2873.00;2873.00
72031;PMS5003;49185;42.320;23.198;2023-11-19T10:48:04;2883.00;2883.00;2883.00
72031;PMS5003;49185;42.320;23.198;2023-11-19T10:50:31;2889.00;2889.00;2889.00
72031;PMS5003;49185;42.320;23.198;2023-11-19T10:52:56;2889.00;2889.00;2889.00
72031;PMS5003;49185;42.320;23.198;2023-11-19T10:55:23;2897.00;2897.00;2897.00
72031;PMS5003;49185;42.320;23.198;2023-11-19T10:57:53;2911.00;2911.00;2911.00
72031;PMS5003;49185;42.320;23.198;2023-11-19T11:00:29;2923.50;2923.50;2923.50
72031;PMS5003;49185;42.320;23.198;2023-11-19T11:03:02;2909.00;2909.00;2909.00
72031;PMS5003;49185;42.320;23.198;2023-11-19T11:05:34;2909.00;2909.00;2909.00
72031;PMS5003;49185;42.320;23.198;2023-11-19T11:08:00;2913.00;2913.00;2913.00
72031;PMS5003;49185;42.320;23.198;2023-11-19T11:10:26;2901.00;2901.00;2901.00
72031;PMS5003;49185;42.320;23.198;2023-11-19T11:12:51;2893.00;2893.00;2893.00
72031;PMS5003;49185;42.320;23.198;2023-11-19T11:15:17;2889.00;2889.00;2889.00
72031;PMS5003;49185;42.320;23.198;2023-11-19T11:17:44;2881.00;2881.00;2881.00
72031;PMS5003;49185;42.320;23.198;2023-11-19T11:20:11;2871.00;2871.00;2871.00
72031;PMS5003;49185;42.320;23.198;2023-11-19T11:22:44;2895.00;2895.00;2895.00
72031;PMS5003;49185;42.320;23.198;2023-11-19T11:25:29;2895.00;2895.00;2895.00
72031;PMS5003;49185;42.320;23.198;2023-11-19T11:31:03;2863.00;2863.00;2863.00
72031;PMS5003;49185;42.320;23.198;2023-11-19T11:33:53;2875.00;2875.00;2875.00
72031;PMS5003;49185;42.320;23.198;2023-11-19T11:36:24;2861.00;2861.00;2861.00
72031;PMS5003;49185;42.320;23.198;2023-11-19T11:38:51;2913.00;2913.00;2913.00
72031;PMS5003;49185;42.320;23.198;2023-11-19T11:43:48;2919.00;2919.00;2919.00
72031;PMS5003;49185;42.320;23.198;2023-11-19T11:49:06;2945.50;2945.50;2945.50
72031;PMS5003;49185;42.320;23.198;2023-11-19T12:02:20;2986.00;2986.00;2986.00
72031;PMS5003;49185;42.320;23.198;2023-11-19T12:04:48;2995.00;2995.00;2995.00
72031;PMS5003;49185;42.320;23.198;2023-11-19T12:07:18;2992.50;2992.50;2992.50
72031;PMS5003;49185;42.320;23.198;2023-11-19T12:09:51;3003.50;3003.50;3003.50
72031;PMS5003;49185;42.320;23.198;2023-11-19T12:19:59;2992.50;2992.50;2992.50
72031;PMS5003;49185;42.320;23.198;2023-11-19T12:22:27;2999.00;2999.00;2999.00
72031;PMS5003;49185;42.320;23.198;2023-11-19T12:24:55;2975.33;2975.33;2975.33
72031;PMS5003;49185;42.320;23.198;2023-11-19T12:27:21;2969.00;2969.00;2969.00
72031;PMS5003;49185;42.320;23.198;2023-11-19T12:29:47;2960.00;2960.00;2960.00
72031;PMS5003;49185;42.320;23.198;2023-11-19T12:32:12;2947.67;2947.67;2947.67
72031;PMS5003;49185;42.320;23.198;2023-11-19T12:34:38;2925.33;2925.33;2925.33
72031;PMS5003;49185;42.320;23.198;2023-11-19T12:37:03;2934.67;2934.67;2934.67
72031;PMS5003;49185;42.320;23.198;2023-11-19T12:39:32;2921.33;2921.33;2921.33
72031;PMS5003;49185;42.320;23.198;2023-11-19T12:41:57;2935.50;2935.50;2935.50
72031;PMS5003;49185;42.320;23.198;2023-11-19T12:44:23;2929.33;2929.33;2929.33
72031;PMS5003;49185;42.320;23.198;2023-11-19T12:47:01;2901.00;2901.00;2901.00
72031;PMS5003;49185;42.320;23.198;2023-11-19T12:49:29;2909.00;2909.00;2909.00
72031;PMS5003;49185;42.320;23.198;2023-11-19T12:51:55;2901.00;2901.00;2901.00
72031;PMS5003;49185;42.320;23.198;2023-11-19T12:54:31;2893.00;2893.00;2893.00
72031;PMS5003;49185;42.320;23.198;2023-11-19T12:57:00;2923.50;2923.50;2923.50